PWSweather.com
Personal Weather Stations
Station Observations
UPSTATEWEATHER
Silver Leaf, Greer, SC 29650

Silver LeafGreer, SC 29650

Lat: 34.8955792, Lon: -82.2868211

Elevation: 875

Station Type: Davis Vantage Vue

https://www.upstateweather.com

High Low Average
Temperature 77.8°F25.4°C 55.5°F13.1°C 66.6°F19.2°C
Dew Point 62.7°F17.1°C 54.0°F12.2°C 58.4°F14.7°C
Winds 3.5 mph 5.6 kmh Calm Calm Calm NCalm N
Wind Gusts 4.6 mph7.4 kmh -- --
Humidity 95% 54% 77%
Pressure 30.35 in1027.8 mb 30.24 in1024.0 mb -
Precipitation 0.00 in0.0 mm - -
Hour Temp Dew Point Humidity Winds Wind Gusts Pressure Precip Precip Rate Daily Precip Total
12:00 AM 62.0°F16.7°C 57.4°F14.1°C 85% Calm Calm -- 30.27 in1025.1 mb - 0.00 in0.0 mm 0.00 in0.0 mm
12:15 AM 61.8°F16.6°C 57.6°F14.2°C 86% Calm Calm -- 30.27 in1025.1 mb - 0.00 in0.0 mm 0.00 in0.0 mm
12:30 AM 61.6°F16.4°C 57.4°F14.1°C 86% Calm Calm -- 30.27 in1025.1 mb - 0.00 in0.0 mm 0.00 in0.0 mm
12:45 AM 61.4°F16.3°C 57.2°F14.0°C 86% Calm Calm -- 30.27 in1025.1 mb - 0.00 in0.0 mm 0.00 in0.0 mm
01:00 AM 61.2°F16.2°C 57.3°F14.1°C 87% Calm Calm -- 30.27 in1025.1 mb - 0.00 in0.0 mm 0.00 in0.0 mm
01:15 AM 60.7°F15.9°C 57.1°F13.9°C 88% Calm Calm -- 30.28 in1025.4 mb - 0.00 in0.0 mm 0.00 in0.0 mm
01:30 AM 60.4°F15.8°C 57.1°F13.9°C 89% Calm Calm -- 30.28 in1025.4 mb - 0.00 in0.0 mm 0.00 in0.0 mm
01:45 AM 60.0°F15.6°C 57.1°F13.9°C 90% Calm Calm -- 30.28 in1025.4 mb - 0.00 in0.0 mm 0.00 in0.0 mm
02:00 AM 59.8°F15.4°C 56.9°F13.8°C 90% Calm Calm -- 30.28 in1025.4 mb - 0.00 in0.0 mm 0.00 in0.0 mm
02:15 AM 59.7°F15.4°C 56.8°F13.8°C 90% Calm Calm -- 30.27 in1025.1 mb - 0.00 in0.0 mm 0.00 in0.0 mm
02:30 AM 59.3°F15.2°C 56.7°F13.7°C 91% Calm Calm -- 30.27 in1025.1 mb - 0.00 in0.0 mm 0.00 in0.0 mm
02:45 AM 58.9°F14.9°C 56.6°F13.7°C 92% Calm Calm -- 30.28 in1025.4 mb - 0.00 in0.0 mm 0.00 in0.0 mm
03:00 AM 58.5°F14.7°C 56.2°F13.4°C 92% Calm Calm -- 30.28 in1025.4 mb - 0.00 in0.0 mm 0.00 in0.0 mm
03:15 AM 58.3°F14.6°C 56.0°F13.3°C 92% Calm Calm -- 30.28 in1025.4 mb - 0.00 in0.0 mm 0.00 in0.0 mm
03:30 AM 58.2°F14.6°C 56.2°F13.4°C 93% Calm Calm -- 30.28 in1025.4 mb - 0.00 in0.0 mm 0.00 in0.0 mm
03:45 AM 57.8°F14.3°C 55.8°F13.2°C 93% Calm Calm -- 30.28 in1025.4 mb - 0.00 in0.0 mm 0.00 in0.0 mm
04:00 AM 57.6°F14.2°C 55.6°F13.1°C 93% Calm Calm -- 30.28 in1025.4 mb - 0.00 in0.0 mm 0.00 in0.0 mm
04:15 AM 57.5°F14.2°C 55.5°F13.1°C 93% Calm Calm -- 30.28 in1025.4 mb - 0.00 in0.0 mm 0.00 in0.0 mm
04:30 AM 57.2°F14.0°C 55.2°F12.9°C 93% Calm Calm -- 30.28 in1025.4 mb - 0.00 in0.0 mm 0.00 in0.0 mm
04:45 AM 56.9°F13.8°C 55.2°F12.9°C 94% Calm Calm -- 30.28 in1025.4 mb - 0.00 in0.0 mm 0.00 in0.0 mm
05:00 AM 56.8°F13.8°C 55.1°F12.8°C 94% Calm Calm -- 30.29 in1025.7 mb - 0.00 in0.0 mm 0.00 in0.0 mm
05:15 AM 56.6°F13.7°C 54.9°F12.7°C 94% Calm Calm -- 30.29 in1025.7 mb - 0.00 in0.0 mm 0.00 in0.0 mm
05:30 AM 56.3°F13.5°C 54.6°F12.6°C 94% Calm Calm -- 30.29 in1025.7 mb - 0.00 in0.0 mm 0.00 in0.0 mm
05:45 AM 56.1°F13.4°C 54.4°F12.4°C 94% Calm Calm -- 30.29 in1025.7 mb - 0.00 in0.0 mm 0.00 in0.0 mm
06:00 AM 56.0°F13.3°C 54.3°F12.4°C 94% Calm Calm -- 30.30 in1026.1 mb - 0.00 in0.0 mm 0.00 in0.0 mm
06:15 AM 55.7°F13.2°C 54.0°F12.2°C 94% Calm Calm -- 30.31 in1026.4 mb - 0.00 in0.0 mm 0.00 in0.0 mm
06:30 AM 55.5°F13.1°C 54.1°F12.3°C 95% Calm Calm -- 30.31 in1026.4 mb - 0.00 in0.0 mm 0.00 in0.0 mm
06:45 AM 55.5°F13.1°C 54.1°F12.3°C 95% Calm Calm -- 30.32 in1026.8 mb - 0.00 in0.0 mm 0.00 in0.0 mm
07:00 AM 55.7°F13.2°C 54.3°F12.4°C 95% Calm Calm -- 30.32 in1026.8 mb - 0.00 in0.0 mm 0.00 in0.0 mm
07:15 AM 56.3°F13.5°C 54.9°F12.7°C 95% Calm Calm -- 30.33 in1027.1 mb - 0.00 in0.0 mm 0.00 in0.0 mm
07:30 AM 57.1°F13.9°C 55.7°F13.2°C 95% Calm Calm -- 30.33 in1027.1 mb - 0.00 in0.0 mm 0.00 in0.0 mm
07:45 AM 58.3°F14.6°C 56.6°F13.7°C 94% Calm Calm -- 30.34 in1027.4 mb - 0.00 in0.0 mm 0.00 in0.0 mm
08:00 AM 59.7°F15.4°C 57.7°F14.3°C 93% Calm Calm -- 30.34 in1027.4 mb - 0.00 in0.0 mm 0.00 in0.0 mm
08:15 AM 61.0°F16.1°C 57.7°F14.3°C 89% Calm Calm -- 30.34 in1027.4 mb - 0.00 in0.0 mm 0.00 in0.0 mm
08:30 AM 62.4°F16.9°C 57.8°F14.3°C 85% Calm Calm 2.3 mph3.7 kmh 30.34 in1027.4 mb - 0.00 in0.0 mm 0.00 in0.0 mm
08:45 AM 63.6°F17.6°C 56.3°F13.5°C 77% Calm Calm -- 30.34 in1027.4 mb - 0.00 in0.0 mm 0.00 in0.0 mm
09:00 AM 64.2°F17.9°C 56.5°F13.6°C 76% Calm Calm -- 30.34 in1027.4 mb - 0.00 in0.0 mm 0.00 in0.0 mm
09:15 AM 64.9°F18.3°C 57.5°F14.2°C 77% Calm Calm 1.2 mph1.9 kmh 30.34 in1027.4 mb - 0.00 in0.0 mm 0.00 in0.0 mm
09:30 AM 65.8°F18.8°C 57.7°F14.3°C 75% Calm Calm 1.2 mph1.9 kmh 30.35 in1027.8 mb - 0.00 in0.0 mm 0.00 in0.0 mm
09:45 AM 67.0°F19.4°C 57.7°F14.3°C 72% Calm Calm 1.2 mph1.9 kmh 30.34 in1027.4 mb - 0.00 in0.0 mm 0.00 in0.0 mm
10:00 AM 68.0°F20.0°C 57.4°F14.1°C 69% 1.2 mph N1.9 kmh N 1.2 mph1.9 kmh 30.34 in1027.4 mb - 0.00 in0.0 mm 0.00 in0.0 mm
10:15 AM 68.9°F20.5°C 57.1°F13.9°C 66% 1.2 mph N1.9 kmh N 1.2 mph1.9 kmh 30.34 in1027.4 mb - 0.00 in0.0 mm 0.00 in0.0 mm
10:30 AM 70.0°F21.1°C 57.3°F14.1°C 64% Calm Calm 1.2 mph1.9 kmh 30.34 in1027.4 mb - 0.00 in0.0 mm 0.00 in0.0 mm
10:45 AM 71.8°F22.1°C 57.1°F13.9°C 60% Calm Calm 2.3 mph3.7 kmh 30.34 in1027.4 mb - 0.00 in0.0 mm 0.00 in0.0 mm
11:00 AM 72.0°F22.2°C 56.9°F13.8°C 59% Calm Calm -- 30.33 in1027.1 mb - 0.00 in0.0 mm 0.00 in0.0 mm
11:15 AM 72.5°F22.5°C 57.4°F14.1°C 59% 1.2 mph N1.9 kmh N 1.2 mph1.9 kmh 30.33 in1027.1 mb - 0.00 in0.0 mm 0.00 in0.0 mm
11:30 AM 73.0°F22.8°C 57.9°F14.4°C 59% Calm Calm 1.2 mph1.9 kmh 30.33 in1027.1 mb - 0.00 in0.0 mm 0.00 in0.0 mm
11:45 AM 74.4°F23.6°C 57.2°F14.0°C 55% 1.2 mph N1.9 kmh N 1.2 mph1.9 kmh 30.32 in1026.8 mb - 0.00 in0.0 mm 0.00 in0.0 mm
12:00 PM 74.0°F23.3°C 57.3°F14.1°C 56% 1.2 mph N1.9 kmh N 2.3 mph3.7 kmh 30.32 in1026.8 mb - 0.00 in0.0 mm 0.00 in0.0 mm
12:15 PM 73.9°F23.3°C 58.2°F14.6°C 58% 3.5 mph N5.6 kmh N 3.5 mph5.6 kmh 30.31 in1026.4 mb - 0.00 in0.0 mm 0.00 in0.0 mm
12:30 PM 74.7°F23.7°C 57.5°F14.2°C 55% 3.5 mph N5.6 kmh N 4.6 mph7.4 kmh 30.30 in1026.1 mb - 0.00 in0.0 mm 0.00 in0.0 mm
12:45 PM 74.1°F23.4°C 58.4°F14.7°C 58% Calm Calm 1.2 mph1.9 kmh 30.30 in1026.1 mb - 0.00 in0.0 mm 0.00 in0.0 mm
01:00 PM 75.6°F24.2°C 58.3°F14.6°C 55% Calm Calm -- 30.30 in1026.1 mb - 0.00 in0.0 mm 0.00 in0.0 mm
01:15 PM 75.5°F24.2°C 58.2°F14.6°C 55% Calm Calm 2.3 mph3.7 kmh 30.29 in1025.7 mb - 0.00 in0.0 mm 0.00 in0.0 mm
01:30 PM 76.0°F24.4°C 59.7°F15.4°C 57% 1.2 mph N1.9 kmh N 2.3 mph3.7 kmh 30.28 in1025.4 mb - 0.00 in0.0 mm 0.00 in0.0 mm
01:45 PM 76.6°F24.8°C 59.2°F15.1°C 55% Calm Calm -- 30.27 in1025.1 mb - 0.00 in0.0 mm 0.00 in0.0 mm
02:00 PM 76.7°F24.8°C 59.3°F15.2°C 55% Calm Calm 1.2 mph1.9 kmh 30.26 in1024.7 mb - 0.00 in0.0 mm 0.00 in0.0 mm
02:15 PM 77.4°F25.2°C 61.5°F16.4°C 58% 1.2 mph N1.9 kmh N 1.2 mph1.9 kmh 30.25 in1024.4 mb - 0.00 in0.0 mm 0.00 in0.0 mm
02:30 PM 77.5°F25.3°C 59.5°F15.3°C 54% 1.2 mph N1.9 kmh N 2.3 mph3.7 kmh 30.25 in1024.4 mb - 0.00 in0.0 mm 0.00 in0.0 mm
02:45 PM 77.3°F25.2°C 61.4°F16.3°C 58% 1.2 mph N1.9 kmh N 1.2 mph1.9 kmh 30.25 in1024.4 mb - 0.00 in0.0 mm 0.00 in0.0 mm
03:00 PM 77.2°F25.1°C 59.8°F15.4°C 55% 1.2 mph N1.9 kmh N 2.3 mph3.7 kmh 30.24 in1024.0 mb - 0.00 in0.0 mm 0.00 in0.0 mm
03:15 PM 77.7°F25.4°C 60.8°F16.0°C 56% 1.2 mph N1.9 kmh N 2.3 mph3.7 kmh 30.24 in1024.0 mb - 0.00 in0.0 mm 0.00 in0.0 mm
03:30 PM 77.4°F25.2°C 60.5°F15.8°C 56% Calm Calm -- 30.24 in1024.0 mb - 0.00 in0.0 mm 0.00 in0.0 mm
03:45 PM 77.7°F25.4°C 61.3°F16.3°C 57% Calm Calm -- 30.24 in1024.0 mb - 0.00 in0.0 mm 0.00 in0.0 mm
04:00 PM 77.8°F25.4°C 61.3°F16.3°C 57% Calm Calm -- 30.24 in1024.0 mb - 0.00 in0.0 mm 0.00 in0.0 mm
04:15 PM 77.5°F25.3°C 61.6°F16.4°C 58% Calm Calm -- 30.24 in1024.0 mb - 0.00 in0.0 mm 0.00 in0.0 mm
04:30 PM 76.6°F24.8°C 60.7°F15.9°C 58% Calm Calm -- 30.24 in1024.0 mb - 0.00 in0.0 mm 0.00 in0.0 mm
04:45 PM 77.2°F25.1°C 60.8°F16.0°C 57% Calm Calm -- 30.24 in1024.0 mb - 0.00 in0.0 mm 0.00 in0.0 mm
05:00 PM 77.3°F25.2°C 62.4°F16.9°C 60% Calm Calm 1.2 mph1.9 kmh 30.24 in1024.0 mb - 0.00 in0.0 mm 0.00 in0.0 mm
05:15 PM 76.1°F24.5°C 61.7°F16.5°C 61% Calm Calm 1.2 mph1.9 kmh 30.24 in1024.0 mb - 0.00 in0.0 mm 0.00 in0.0 mm
05:30 PM 75.5°F24.2°C 62.1°F16.7°C 63% Calm Calm -- 30.24 in1024.0 mb - 0.00 in0.0 mm 0.00 in0.0 mm
05:45 PM 74.8°F23.8°C 62.7°F17.1°C 66% Calm Calm -- 30.24 in1024.0 mb - 0.00 in0.0 mm 0.00 in0.0 mm
06:00 PM 74.2°F23.4°C 61.7°F16.5°C 65% Calm Calm -- 30.24 in1024.0 mb - 0.00 in0.0 mm 0.00 in0.0 mm
06:15 PM 73.7°F23.2°C 62.1°F16.7°C 67% Calm Calm -- 30.24 in1024.0 mb - 0.00 in0.0 mm 0.00 in0.0 mm
06:30 PM 72.9°F22.7°C 62.5°F16.9°C 70% Calm Calm -- 30.24 in1024.0 mb - 0.00 in0.0 mm 0.00 in0.0 mm
06:45 PM 72.3°F22.4°C 61.6°F16.4°C 69% Calm Calm -- 30.24 in1024.0 mb - 0.00 in0.0 mm 0.00 in0.0 mm
07:00 PM 71.7°F22.1°C 61.8°F16.6°C 71% Calm Calm -- 30.25 in1024.4 mb - 0.00 in0.0 mm 0.00 in0.0 mm
07:15 PM 71.0°F21.7°C 61.5°F16.4°C 72% Calm Calm -- 30.25 in1024.4 mb - 0.00 in0.0 mm 0.00 in0.0 mm
07:30 PM 70.4°F21.3°C 60.9°F16.1°C 72% Calm Calm -- 30.25 in1024.4 mb - 0.00 in0.0 mm 0.00 in0.0 mm
07:45 PM 69.5°F20.8°C 61.6°F16.4°C 76% Calm Calm -- 30.26 in1024.7 mb - 0.00 in0.0 mm 0.00 in0.0 mm
08:00 PM 68.8°F20.4°C 61.3°F16.3°C 77% Calm Calm -- 30.26 in1024.7 mb - 0.00 in0.0 mm 0.00 in0.0 mm
08:15 PM 68.2°F20.1°C 60.7°F15.9°C 77% Calm Calm -- 30.27 in1025.1 mb - 0.00 in0.0 mm 0.00 in0.0 mm
08:30 PM 67.5°F19.7°C 60.4°F15.8°C 78% Calm Calm -- 30.27 in1025.1 mb - 0.00 in0.0 mm 0.00 in0.0 mm
08:45 PM 67.1°F19.5°C 60.7°F15.9°C 80% Calm Calm -- 30.27 in1025.1 mb - 0.00 in0.0 mm 0.00 in0.0 mm
09:00 PM 66.8°F19.3°C 60.4°F15.8°C 80% Calm Calm -- 30.28 in1025.4 mb - 0.00 in0.0 mm 0.00 in0.0 mm
09:15 PM 66.3°F19.1°C 60.6°F15.9°C 82% Calm Calm -- 30.27 in1025.1 mb - 0.00 in0.0 mm 0.00 in0.0 mm
09:30 PM 65.6°F18.7°C 60.6°F15.9°C 84% Calm Calm -- 30.28 in1025.4 mb - 0.00 in0.0 mm 0.00 in0.0 mm
09:45 PM 65.1°F18.4°C 60.5°F15.8°C 85% Calm Calm -- 30.28 in1025.4 mb - 0.00 in0.0 mm 0.00 in0.0 mm
10:00 PM 64.7°F18.2°C 60.8°F16.0°C 87% Calm Calm -- 30.28 in1025.4 mb - 0.00 in0.0 mm 0.00 in0.0 mm
10:15 PM 64.2°F17.9°C 60.2°F15.7°C 87% Calm Calm -- 30.28 in1025.4 mb - 0.00 in0.0 mm 0.00 in0.0 mm
10:30 PM 64.0°F17.8°C 60.4°F15.8°C 88% Calm Calm -- 30.28 in1025.4 mb - 0.00 in0.0 mm 0.00 in0.0 mm
10:45 PM 63.7°F17.6°C 60.4°F15.8°C 89% Calm Calm -- 30.28 in1025.4 mb - 0.00 in0.0 mm 0.00 in0.0 mm
11:00 PM 63.5°F17.5°C 60.2°F15.7°C 89% Calm Calm -- 30.29 in1025.7 mb - 0.00 in0.0 mm 0.00 in0.0 mm
11:15 PM 63.3°F17.4°C 60.0°F15.6°C 89% Calm Calm -- 30.29 in1025.7 mb - 0.00 in0.0 mm 0.00 in0.0 mm
11:30 PM 62.9°F17.2°C 59.9°F15.5°C 90% Calm Calm -- 30.29 in1025.7 mb - 0.00 in0.0 mm 0.00 in0.0 mm
11:45 PM 62.6°F17.0°C 59.9°F15.5°C 91% Calm Calm -- 30.29 in1025.7 mb - 0.00 in0.0 mm 0.00 in0.0 mm